Time;durP1;ratioP1;P1;durP2;ratioP2;P2;SDS_P1;SDS_P2;PMS_P1;PMS_P2;Temp;Humidity;BMP_temperature;BMP_pressure;BME280_temperature;BME280_humidity;BME280_pressure;Samples;Min_cycle;Max_cycle;Signal;HPM_P1;HPM_P2
2021/08/07 05:01:41;;;;;;;1.42;1.10;;;;;;;31.43;33.61;94447.78;5633740;23;20519;-79
2021/08/07 05:04:06;;;;;;;3.00;1.33;;;;;;;31.33;34.14;94445.41;4933175;29;20039;-79
2021/08/07 05:06:32;;;;;;;2.17;1.10;;;;;;;31.54;33.69;94454.44;4935463;29;20098;-79
2021/08/07 05:08:57;;;;;;;1.42;1.00;;;;;;;30.59;34.73;94464.06;4950470;28;20507;-79
2021/08/07 05:11:23;;;;;;;1.75;1.20;;;;;;;31.18;33.99;94459.22;4935225;29;20031;-77
2021/08/07 05:13:48;;;;;;;1.42;0.88;;;;;;;30.16;35.88;94462.97;4934269;29;20062;-77
2021/08/07 05:16:14;;;;;;;1.40;1.30;;;;;;;29.84;36.33;94469.38;4934906;29;20039;-79
2021/08/07 05:18:39;;;;;;;1.38;1.27;;;;;;;32.30;32.22;94462.78;4934956;28;20039;-80
2021/08/07 05:21:05;;;;;;;2.03;1.38;;;;;;;33.54;30.69;94479.34;4918307;29;20028;-77
2021/08/07 05:23:30;;;;;;;2.25;1.20;;;;;;;33.85;30.42;94487.84;4935275;29;20024;-78
2021/08/07 05:25:56;;;;;;;1.27;1.10;;;;;;;31.53;33.23;94478.88;4950829;29;20083;-78
2021/08/07 05:28:21;;;;;;;1.17;1.08;;;;;;;32.80;32.18;94477.19;4952911;29;20030;-78
2021/08/07 05:30:46;;;;;;;2.25;1.00;;;;;;;34.03;29.73;94466.19;4932866;29;20042;-79
2021/08/07 05:33:12;;;;;;;1.75;0.80;;;;;;;34.63;29.40;94463.72;4919473;29;20516;-79
2021/08/07 05:35:37;;;;;;;1.33;1.10;;;;;;;35.15;28.78;94466.59;4917956;29;20034;-79
2021/08/07 05:38:03;;;;;;;1.50;1.10;;;;;;;35.22;29.39;94480.31;4922395;28;20018;-80
2021/08/07 05:40:28;;;;;;;4.22;1.00;;;;;;;34.94;29.67;94476.66;4971482;28;20042;-78
2021/08/07 05:42:55;;;;;;;1.98;0.98;;;;;;;35.85;28.51;94481.47;4951179;28;20607;-77
2021/08/07 05:45:21;;;;;;;1.13;1.00;;;;;;;34.46;29.63;94471.94;4922962;29;20051;-77
2021/08/07 05:47:46;;;;;;;0.95;0.77;;;;;;;35.54;29.05;94485.88;4916494;29;20510;-76
2021/08/07 05:50:12;;;;;;;1.45;0.93;;;;;;;36.05;28.25;94489.72;4928048;29;20562;-77
2021/08/07 05:52:38;;;;;;;1.98;1.00;;;;;;;35.56;28.50;94479.03;4931017;29;20038;-77
2021/08/07 05:55:05;;;;;;;1.95;1.10;;;;;;;36.01;28.19;94481.53;4932009;29;20421;-76
2021/08/07 05:57:30;;;;;;;1.35;1.10;;;;;;;35.07;28.21;94502.47;4942022;29;20043;-77
2021/08/07 05:59:56;;;;;;;3.30;1.05;;;;;;;35.35;27.94;94500.72;4930313;29;20038;-77
2021/08/07 06:02:21;;;;;;;1.65;1.20;;;;;;;36.16;27.42;94499.69;4951342;29;20043;-79
2021/08/07 06:04:46;;;;;;;3.03;1.20;;;;;;;35.32;29.23;94500.63;4929093;29;20042;-78
2021/08/07 06:07:12;;;;;;;2.60;1.35;;;;;;;30.70;35.24;94504.69;4944975;28;20038;-78
2021/08/07 06:09:37;;;;;;;1.42;1.05;;;;;;;28.97;38.75;94501.59;4932324;29;20028;-78
2021/08/07 06:12:03;;;;;;;1.73;1.27;;;;;;;27.57;39.88;94502.84;4933522;29;20027;-78
2021/08/07 06:14:29;;;;;;;2.38;1.48;;;;;;;28.31;40.35;94498.53;4950039;29;20067;-77
2021/08/07 06:16:55;;;;;;;2.13;1.40;;;;;;;28.67;39.18;94494.97;4917247;29;20106;-77
2021/08/07 06:19:21;;;;;;;1.42;1.33;;;;;;;28.26;39.76;94484.19;4934233;29;20404;-78
2021/08/07 06:21:47;;;;;;;2.42;1.63;;;;;;;32.03;33.05;94506.78;4899839;29;20027;-79
2021/08/07 06:24:12;;;;;;;1.55;1.25;;;;;;;34.94;29.75;94520.53;4934466;29;20035;-77
2021/08/07 06:26:38;;;;;;;1.52;1.42;;;;;;;35.36;28.58;94521.16;4899903;29;20416;-76
2021/08/07 06:29:04;;;;;;;2.42;1.70;;;;;;;34.70;29.34;94520.50;4934202;29;20062;-77
2021/08/07 06:31:29;;;;;;;3.10;1.60;;;;;;;35.94;28.71;94527.97;4915499;29;20113;-77
2021/08/07 06:33:55;;;;;;;3.28;1.95;;;;;;;32.76;32.81;94518.38;4911818;28;20035;-78
2021/08/07 06:36:20;;;;;;;2.25;1.80;;;;;;;30.06;36.76;94538.06;4966473;28;20035;-79
2021/08/07 06:38:46;;;;;;;1.60;1.50;;;;;;;29.54;37.75;94526.13;4929212;29;20565;-79
2021/08/07 06:41:11;;;;;;;2.03;1.58;;;;;;;29.79;37.77;94528.22;4899047;29;20057;-79
2021/08/07 06:43:37;;;;;;;3.10;1.40;;;;;;;28.94;38.93;94533.41;4936992;29;20062;-78
2021/08/07 06:46:02;;;;;;;3.55;2.30;;;;;;;29.33;38.76;94523.06;4931458;28;20039;-79
2021/08/07 06:48:28;;;;;;;2.00;1.90;;;;;;;29.48;38.12;94535.28;4923264;28;20063;-77
2021/08/07 06:50:53;;;;;;;1.88;1.60;;;;;;;29.54;38.03;94532.22;4927639;28;20078;-77
2021/08/07 06:53:19;;;;;;;2.92;2.70;;;;;;;30.88;36.42;94526.97;4923092;28;20030;-78
2021/08/07 06:55:44;;;;;;;2.53;1.75;;;;;;;35.99;28.80;94516.16;4935128;28;20061;-77
2021/08/07 06:58:10;;;;;;;1.50;1.40;;;;;;;36.74;27.25;94524.44;4930250;29;20469;-76
2021/08/07 07:00:36;;;;;;;2.30;1.80;;;;;;;35.51;28.39;94522.41;4958846;28;20035;-78
2021/08/07 07:03:02;;;;;;;2.58;0.93;;;;;;;33.10;32.13;94528.25;4935465;28;20042;-81
2021/08/07 07:05:31;;;;;;;2.00;1.30;;;;;;;29.11;38.90;94526.41;4932160;28;20068;-77
2021/08/07 07:07:56;;;;;;;;;;;;;;;28.97;39.24;94527.50;4944956;28;20042;-78
2021/08/07 07:10:22;;;;;;;1.80;1.10;;;;;;;28.07;40.71;94525.28;4930825;29;19922;-78
2021/08/07 07:12:47;;;;;;;1.50;1.10;;;;;;;28.66;40.49;94525.41;4910569;29;20027;-78
2021/08/07 07:15:13;;;;;;;2.58;1.67;;;;;;;28.69;39.51;94513.34;4931531;29;20032;-78
2021/08/07 07:17:39;;;;;;;2.53;1.30;;;;;;;28.38;40.31;94529.06;4931389;29;20041;-78
2021/08/07 07:20:05;;;;;;;2.38;1.35;;;;;;;28.46;40.77;94519.59;4930390;28;20408;-77
2021/08/07 07:22:31;;;;;;;1.67;1.30;;;;;;;27.94;41.73;94518.00;4936165;28;20031;-77
2021/08/07 07:24:56;;;;;;;1.67;1.17;;;;;;;28.19;41.46;94520.31;4956127;28;20030;-77
2021/08/07 07:27:22;;;;;;;2.50;1.35;;;;;;;28.46;40.24;94507.06;4953767;28;20102;-80
2021/08/07 07:29:47;;;;;;;1.30;1.02;;;;;;;28.84;40.71;94509.59;4922845;28;20070;-81
2021/08/07 07:32:13;;;;;;;3.50;1.23;;;;;;;27.53;41.58;94515.13;4937470;28;20465;-80
2021/08/07 07:34:38;;;;;;;1.48;0.90;;;;;;;27.84;41.65;94518.16;4917198;29;20114;-81
2021/08/07 07:37:04;;;;;;;1.80;1.20;;;;;;;27.99;41.93;94526.72;4915247;28;20030;-80
2021/08/07 07:39:30;;;;;;;2.13;1.10;;;;;;;28.23;41.00;94521.28;4947837;29;20788;-80
2021/08/07 07:41:55;;;;;;;0.80;0.80;;;;;;;28.39;39.74;94506.63;4933549;29;20055;-80
2021/08/07 07:44:20;;;;;;;2.33;0.90;;;;;;;28.25;39.90;94519.16;4918374;29;20426;-81
2021/08/07 07:46:46;;;;;;;2.15;0.98;;;;;;;28.05;39.79;94522.09;4949705;29;20106;-79
2021/08/07 07:49:11;;;;;;;0.88;0.80;;;;;;;28.42;38.99;94535.38;4911100;29;20439;-79
2021/08/07 07:51:37;;;;;;;1.40;0.73;;;;;;;28.14;38.80;94528.38;4922313;29;20035;-80
2021/08/07 07:54:02;;;;;;;1.27;0.90;;;;;;;27.68;40.59;94534.34;4911319;29;20035;-80
2021/08/07 07:56:28;;;;;;;1.88;1.10;;;;;;;29.21;39.73;94530.75;4928783;29;20107;-81
2021/08/07 07:58:53;;;;;;;1.45;0.93;;;;;;;28.75;40.38;94533.50;4929018;29;20039;-80
2021/08/07 08:01:19;;;;;;;1.25;0.98;;;;;;;28.52;39.62;94524.53;4927702;29;20520;-80
2021/08/07 08:03:44;;;;;;;1.23;1.13;;;;;;;28.32;40.17;94538.19;4927892;29;20036;-80
2021/08/07 08:06:10;;;;;;;1.75;0.85;;;;;;;27.29;40.08;94520.47;4926989;29;20413;-81
2021/08/07 08:08:35;;;;;;;1.10;1.10;;;;;;;27.40;40.09;94540.53;4928093;29;20155;-79
2021/08/07 08:11:01;;;;;;;0.93;0.93;;;;;;;26.77;40.75;94528.50;4926504;29;20508;-83
2021/08/07 08:13:26;;;;;;;3.78;1.00;;;;;;;27.45;40.72;94527.22;4912331;29;20465;-81
2021/08/07 08:15:52;;;;;;;0.90;0.80;;;;;;;27.98;39.43;94532.31;4927333;29;20027;-80
2021/08/07 08:18:17;;;;;;;1.23;0.90;;;;;;;29.37;38.07;94540.06;4927054;29;20043;-80
2021/08/07 08:20:43;;;;;;;1.30;0.88;;;;;;;29.50;38.20;94543.81;4928052;29;20059;-81
2021/08/07 08:23:08;;;;;;;1.20;0.70;;;;;;;28.48;38.64;94539.53;4929182;29;20050;-80
2021/08/07 08:25:34;;;;;;;2.97;0.90;;;;;;;29.03;38.61;94552.97;4930949;29;20493;-81
2021/08/07 08:27:59;;;;;;;2.20;0.98;;;;;;;28.67;39.18;94548.28;4913365;29;20039;-80
2021/08/07 08:30:26;;;;;;;0.98;0.90;;;;;;;29.57;37.82;94550.31;4915113;29;20501;-81
2021/08/07 08:32:52;;;;;;;1.73;0.70;;;;;;;29.37;37.41;94548.09;4914425;29;20493;-81
2021/08/07 08:35:18;;;;;;;1.27;0.82;;;;;;;29.21;37.85;94539.56;4914399;29;20028;-81
2021/08/07 08:37:43;;;;;;;0.75;0.75;;;;;;;28.68;38.43;94533.88;4914683;29;20039;-79
2021/08/07 08:40:09;;;;;;;2.03;0.80;;;;;;;28.87;37.28;94531.13;4913976;29;20027;-81
2021/08/07 08:42:34;;;;;;;1.23;0.80;;;;;;;27.42;39.20;94517.09;4915136;29;20561;-79
2021/08/07 08:45:00;;;;;;;1.95;0.90;;;;;;;27.80;39.09;94541.91;4913595;29;20036;-81
2021/08/07 08:47:26;;;;;;;1.60;1.00;;;;;;;26.60;41.12;94531.56;4915153;29;20035;-81
2021/08/07 08:49:52;;;;;;;1.73;0.88;;;;;;;27.73;40.52;94542.28;4913170;29;20032;-82
2021/08/07 08:52:21;;;;;;;1.05;0.93;;;;;;;27.31;38.22;94528.16;4930213;29;20503;-79
2021/08/07 08:54:47;;;;;;;1.65;0.73;;;;;;;27.67;39.06;94529.31;4914960;29;20121;-80
2021/08/07 08:57:12;;;;;;;0.90;0.90;;;;;;;27.97;38.63;94533.38;4913391;29;20043;-80
2021/08/07 08:59:37;;;;;;;3.78;0.90;;;;;;;28.97;38.38;94530.94;4931014;29;20031;-81
2021/08/07 09:02:03;;;;;;;1.30;1.17;;;;;;;27.58;38.19;94528.38;4897327;29;20043;-80
2021/08/07 09:04:28;;;;;;;3.50;0.75;;;;;;;29.09;38.31;94539.25;4914526;29;20480;-81
2021/08/07 09:06:54;;;;;;;0.98;0.65;;;;;;;29.66;37.28;94535.19;4929304;29;20042;-80
2021/08/07 09:09:33;;;;;;;1.75;0.90;;;;;;;29.23;36.42;94544.59;4898881;29;20097;-80
2021/08/07 09:11:58;;;;;;;1.00;0.80;;;;;;;28.96;36.83;94545.38;4929690;29;20085;-80
2021/08/07 09:14:25;;;;;;;0.60;0.60;;;;;;;28.86;37.92;94540.25;4930324;29;20031;-81
2021/08/07 09:17:04;;;;;;;1.80;0.90;;;;;;;27.72;37.98;94538.03;4930227;29;20515;-80
2021/08/07 09:19:39;;;;;;;3.22;0.85;;;;;;;30.04;37.36;94538.38;4946358;29;20040;-80
2021/08/07 09:22:11;;;;;;;2.58;1.00;;;;;;;29.55;36.60;94531.16;4930141;29;20036;-79
2021/08/07 09:24:52;;;;;;;0.70;0.70;;;;;;;29.56;36.99;94537.28;4926021;29;20028;-81
2021/08/07 09:27:18;;;;;;;0.80;0.80;;;;;;;27.99;38.01;94526.72;4926168;29;20102;-79
2021/08/07 09:29:43;;;;;;;0.75;0.75;;;;;;;28.54;38.55;94513.59;4926993;29;20775;-80
2021/08/07 09:32:08;;;;;;;13.50;12.27;;;;;;;29.33;37.52;94524.94;4926058;29;20039;-79
2021/08/07 09:34:34;;;;;;;4.70;1.05;;;;;;;26.82;39.51;94520.47;4930061;29;20489;-80
2021/08/07 09:37:00;;;;;;;3.15;0.77;;;;;;;29.36;37.84;94529.69;4927186;29;20040;-80
2021/08/07 09:39:42;;;;;;;1.48;1.15;;;;;;;29.94;37.31;94524.44;4943545;29;20039;-80
2021/08/07 09:42:07;;;;;;;1.67;1.15;;;;;;;29.55;35.68;94525.00;4912935;29;20038;-80
2021/08/07 09:44:34;;;;;;;1.10;0.90;;;;;;;29.72;36.07;94531.31;4914298;29;20055;-79
2021/08/07 09:47:09;;;;;;;1.55;0.70;;;;;;;29.61;35.33;94537.94;4914669;29;20031;-79
2021/08/07 09:49:38;;;;;;;0.90;0.90;;;;;;;27.33;37.11;94533.97;4917107;29;20027;-82
2021/08/07 09:52:05;;;;;;;;;;;;;;;27.54;37.74;94540.69;4918584;29;20078;-81
2021/08/07 09:54:43;;;;;;;0.80;0.77;;;;;;;28.97;37.50;94540.81;4932103;29;19918;-81
2021/08/07 09:57:10;;;;;;;0.90;0.90;;;;;;;28.63;36.63;94531.28;4916960;29;20070;-80
2021/08/07 09:59:47;;;;;;;1.15;0.93;;;;;;;29.61;35.19;94545.16;4932685;29;20122;-81
2021/08/07 10:02:23;;;;;;;2.28;0.80;;;;;;;29.52;36.52;94529.06;4948311;28;20036;-79
2021/08/07 10:04:49;;;;;;;1.85;0.70;;;;;;;29.55;36.93;94530.34;4933596;29;20573;-80
2021/08/07 10:07:14;;;;;;;1.05;0.93;;;;;;;29.09;36.56;94527.81;4916194;29;20039;-80
2021/08/07 10:10:02;;;;;;;4.30;1.08;;;;;;;29.87;35.86;94530.19;5311724;23;20018;-78
2021/08/07 10:12:28;;;;;;;0.82;0.80;;;;;;;29.31;35.55;94522.59;4912478;29;20520;-79
2021/08/07 10:14:53;;;;;;;0.75;0.75;;;;;;;28.97;36.43;94524.81;4933481;29;20039;-79
2021/08/07 10:17:20;;;;;;;1.70;0.90;;;;;;;29.72;35.48;94520.63;4916412;29;20028;-80
2021/08/07 10:19:46;;;;;;;0.93;0.93;;;;;;;29.51;34.34;94518.72;4916823;29;20107;-80
2021/08/07 10:22:13;;;;;;;0.80;0.80;;;;;;;28.99;35.86;94522.66;4915123;29;20034;-80
2021/08/07 10:24:41;;;;;;;2.20;0.80;;;;;;;28.96;36.76;94509.91;4916097;29;20425;-80
2021/08/07 10:27:06;;;;;;;0.75;0.75;;;;;;;28.86;36.65;94512.78;4930941;29;20024;-79
2021/08/07 10:29:38;;;;;;;4.78;0.85;;;;;;;29.88;35.72;94515.75;4931930;29;20111;-80
2021/08/07 10:32:05;;;;;;;0.90;0.82;;;;;;;29.68;34.92;94508.97;4915379;29;20036;-81
2021/08/07 10:34:32;;;;;;;2.08;0.90;;;;;;;29.98;35.61;94507.53;4915223;29;20036;-81
2021/08/07 10:36:57;;;;;;;2.25;1.10;;;;;;;29.87;34.95;94518.72;4931617;29;20035;-81
2021/08/07 10:39:23;;;;;;;1.80;0.77;;;;;;;29.98;34.76;94517.41;4931885;29;20474;-81
2021/08/07 10:41:48;;;;;;;1.60;0.68;;;;;;;29.56;34.90;94511.38;4915856;29;20023;-81
2021/08/07 10:44:14;;;;;;;1.05;0.82;;;;;;;28.01;35.75;94491.78;4930481;29;20068;-80
2021/08/07 10:46:39;;;;;;;0.80;0.80;;;;;;;29.84;35.96;94511.31;4937573;29;20042;-79
2021/08/07 10:49:06;;;;;;;0.68;0.60;;;;;;;29.78;34.22;94505.28;4929929;29;20031;-80
2021/08/07 10:51:37;;;;;;;0.70;0.70;;;;;;;28.99;36.09;94506.66;4928511;29;20072;-80
2021/08/07 10:54:03;;;;;;;0.70;0.70;;;;;;;29.63;35.81;94508.28;4912359;29;20035;-79
2021/08/07 10:56:29;;;;;;;1.13;0.80;;;;;;;30.17;34.75;94500.13;4929650;29;20095;-82
2021/08/07 10:59:10;;;;;;;2.08;0.90;;;;;;;29.48;35.33;94504.06;4942334;28;20031;-81
2021/08/07 11:01:35;;;;;;;2.55;0.70;;;;;;;29.86;35.20;94491.25;4949741;28;20065;-81
2021/08/07 11:04:01;;;;;;;2.60;0.68;;;;;;;29.59;35.49;94488.59;4919955;29;20493;-80
2021/08/07 11:06:38;;;;;;;1.50;0.82;;;;;;;28.74;35.32;94479.38;4951774;29;20501;-79
2021/08/07 11:09:16;;;;;;;1.10;0.80;;;;;;;30.10;35.61;94473.00;4952077;28;20030;-80
2021/08/07 11:11:42;;;;;;;0.70;0.70;;;;;;;29.91;35.17;94468.94;4937233;29;20102;-80
2021/08/07 11:14:25;;;;;;;2.38;0.80;;;;;;;29.85;35.67;94476.28;4949835;29;20031;-80
2021/08/07 11:17:05;;;;;;;1.67;0.80;;;;;;;30.18;35.09;94468.81;4951279;29;20393;-79
2021/08/07 11:19:49;;;;;;;1.00;0.90;;;;;;;30.04;33.92;94463.53;4949971;29;20148;-79
2021/08/07 11:22:41;;;;;;;0.60;0.60;;;;;;;29.83;34.85;94457.09;4933034;29;20055;-79
2021/08/07 11:25:22;;;;;;;0.77;0.77;;;;;;;30.32;33.92;94453.47;4938040;29;20031;-79
2021/08/07 11:30:20;;;;;;;4.50;0.85;;;;;;;30.38;32.83;94440.78;4951788;29;20039;-80
2021/08/07 11:33:01;;;;;;;0.70;0.70;;;;;;;30.86;34.04;94464.94;4917467;29;20177;-80
2021/08/07 11:35:37;;;;;;;0.80;0.80;;;;;;;29.86;32.84;94453.84;4951343;29;20066;-78
2021/08/07 11:38:10;;;;;;;0.60;0.60;;;;;;;29.92;33.41;94454.50;4950447;29;20504;-78
2021/08/07 11:40:57;;;;;;;1.52;1.00;;;;;;;30.32;33.05;94459.63;4948613;29;20050;-80
2021/08/07 11:43:26;;;;;;;0.90;0.73;;;;;;;30.02;33.26;94459.59;4934521;28;20086;-81
2021/08/07 11:45:55;;;;;;;0.65;0.60;;;;;;;30.37;33.55;94453.38;4936579;28;20027;-80
2021/08/07 11:48:24;;;;;;;4.30;1.00;;;;;;;29.25;33.26;94449.06;4954964;28;20423;-78
2021/08/07 11:50:50;;;;;;;;;;;;;;;29.75;33.48;94439.91;4937186;28;20622;-78
2021/08/07 11:53:16;;;;;;;0.65;0.65;;;;;;;30.60;34.22;94438.09;4934255;29;19952;-80
2021/08/07 11:55:42;;;;;;;0.68;0.60;;;;;;;30.31;33.92;94433.22;4914941;29;20024;-79
2021/08/07 11:58:11;;;;;;;0.70;0.65;;;;;;;30.36;32.73;94445.66;4914678;29;20047;-79
2021/08/07 12:00:40;;;;;;;1.60;0.88;;;;;;;30.61;32.95;94445.78;4933678;29;20023;-80
2021/08/07 12:03:10;;;;;;;0.93;0.70;;;;;;;30.07;32.81;94435.41;4932751;29;20027;-78
2021/08/07 12:05:38;;;;;;;1.00;0.70;;;;;;;29.98;33.05;94439.91;4917700;29;20027;-78
2021/08/07 12:08:08;;;;;;;0.90;0.80;;;;;;;30.43;33.76;94441.47;4950405;29;20034;-80
2021/08/07 12:10:35;;;;;;;1.15;0.80;;;;;;;30.86;33.00;94433.59;4931965;29;20062;-79
2021/08/07 12:13:00;;;;;;;1.33;0.70;;;;;;;29.83;33.62;94429.63;4900694;29;20028;-79
2021/08/07 12:15:26;;;;;;;0.93;0.57;;;;;;;28.94;33.39;94424.03;4948734;29;20050;-78
2021/08/07 12:17:52;;;;;;;1.65;0.73;;;;;;;28.90;33.63;94425.75;4915845;29;20179;-77
2021/08/07 12:20:17;;;;;;;0.70;0.70;;;;;;;29.07;33.83;94418.69;4915758;29;20164;-78
2021/08/07 12:22:56;;;;;;;1.55;0.82;;;;;;;29.67;34.27;94421.91;4915907;29;20057;-78
2021/08/07 12:25:21;;;;;;;1.15;0.80;;;;;;;29.78;33.78;94425.13;4916368;29;20023;-78
2021/08/07 12:28:07;;;;;;;1.58;0.80;;;;;;;30.46;33.46;94422.13;4948141;29;20115;-78
2021/08/07 12:30:33;;;;;;;1.50;0.88;;;;;;;29.96;33.33;94388.69;4909655;29;20035;-79
2021/08/07 12:33:31;;;;;;;2.50;0.60;;;;;;;30.38;33.61;94409.47;4930805;29;20035;-81
2021/08/07 12:35:56;;;;;;;0.88;0.65;;;;;;;30.62;33.61;94407.25;4915152;29;20413;-79
2021/08/07 12:38:27;;;;;;;0.90;0.60;;;;;;;30.60;33.10;94414.78;4916031;29;20027;-79
2021/08/07 12:40:57;;;;;;;0.80;0.70;;;;;;;30.72;32.41;94409.66;4947755;29;20031;-80
2021/08/07 12:43:31;;;;;;;0.55;0.55;;;;;;;31.01;33.61;94413.69;4915964;29;20118;-80
2021/08/07 12:46:18;;;;;;;0.80;0.80;;;;;;;30.52;33.34;94412.09;4931135;29;20560;-80
2021/08/07 12:48:53;;;;;;;1.20;0.82;;;;;;;30.58;33.11;94414.31;4945906;29;20040;-79
2021/08/07 12:51:34;;;;;;;1.52;0.80;;;;;;;30.97;33.37;94404.72;4948933;29;20055;-79
2021/08/07 12:54:01;;;;;;;2.17;0.80;;;;;;;30.58;32.55;94411.66;4915003;29;20045;-78
2021/08/07 12:56:31;;;;;;;2.92;0.70;;;;;;;30.66;32.44;94410.91;4914803;29;20058;-79
2021/08/07 12:59:07;;;;;;;3.17;0.70;;;;;;;30.44;32.57;94381.53;4915600;29;20035;-78
2021/08/07 13:01:37;;;;;;;2.10;0.70;;;;;;;30.55;33.33;94403.44;4912410;29;20083;-78
2021/08/07 13:04:04;;;;;;;1.88;0.65;;;;;;;30.46;32.28;94399.97;4927956;29;20034;-78
2021/08/07 13:06:30;;;;;;;1.05;0.80;;;;;;;30.43;33.47;94398.69;4927832;29;20110;-79
2021/08/07 13:08:56;;;;;;;3.60;0.75;;;;;;;31.17;32.51;94404.13;4928554;29;20119;-79
2021/08/07 13:11:24;;;;;;;1.60;0.88;;;;;;;29.35;32.78;94410.66;4926771;29;20052;-78
2021/08/07 13:13:51;;;;;;;0.85;0.70;;;;;;;30.07;33.19;94384.63;4927734;29;20099;-77
2021/08/07 13:16:45;;;;;;;0.50;0.50;;;;;;;30.81;32.75;94407.78;4927774;29;20038;-78
2021/08/07 13:19:19;;;;;;;0.93;0.70;;;;;;;30.57;32.43;94380.63;4910746;29;20035;-79
2021/08/07 13:21:46;;;;;;;0.95;0.90;;;;;;;30.28;33.13;94388.34;4915576;29;20066;-78
2021/08/07 13:24:31;;;;;;;1.02;0.60;;;;;;;30.16;32.52;94401.50;4949445;29;20098;-78
2021/08/07 13:27:01;;;;;;;1.65;0.80;;;;;;;30.60;33.75;94396.06;4933626;29;20075;-80
2021/08/07 13:29:27;;;;;;;2.03;0.70;;;;;;;30.52;32.42;94388.81;4949454;29;20054;-80
2021/08/07 13:31:53;;;;;;;0.63;0.63;;;;;;;29.93;32.82;94391.94;4933614;29;20489;-80
2021/08/07 13:34:18;;;;;;;0.55;0.55;;;;;;;30.02;32.74;94390.88;4949912;29;20030;-79
2021/08/07 13:36:44;;;;;;;0.80;0.80;;;;;;;29.15;32.98;94393.19;4933530;29;20038;-77
2021/08/07 13:39:09;;;;;;;1.85;0.70;;;;;;;29.83;33.07;94371.59;4932803;29;20055;-78
2021/08/07 13:41:44;;;;;;;1.10;0.77;;;;;;;30.29;33.20;94372.03;4917368;29;20598;-78
2021/08/07 13:44:10;;;;;;;3.85;0.70;;;;;;;30.28;33.41;94388.34;4948443;29;20019;-79
2021/08/07 13:46:35;;;;;;;0.93;0.70;;;;;;;30.17;33.25;94377.16;4933169;28;20019;-79
2021/08/07 13:49:02;;;;;;;0.77;0.73;;;;;;;30.03;33.58;94379.13;4917443;29;20536;-80
2021/08/07 13:51:27;;;;;;;2.78;0.65;;;;;;;30.17;33.13;94389.72;4916688;29;20035;-80
2021/08/07 13:53:53;;;;;;;1.60;0.60;;;;;;;30.11;32.99;94389.09;4934523;28;20495;-80
2021/08/07 13:56:18;;;;;;;0.60;0.60;;;;;;;30.44;33.78;94394.13;4930719;28;23618;-81
2021/08/07 13:58:44;;;;;;;0.93;0.70;;;;;;;30.58;33.98;94389.47;4930779;29;20039;-81
2021/08/07 14:01:09;;;;;;;0.60;0.60;;;;;;;30.73;32.54;94400.50;4897957;29;20043;-82
2021/08/07 14:03:34;;;;;;;0.50;0.50;;;;;;;30.52;32.63;94391.50;4930162;29;20035;-80
2021/08/07 14:06:03;;;;;;;1.95;0.70;;;;;;;30.58;32.78;94395.59;4913837;29;20036;-78
2021/08/07 14:08:29;;;;;;;0.90;0.60;;;;;;;30.59;33.07;94394.50;4930930;29;20024;-79
2021/08/07 14:10:54;;;;;;;1.20;0.80;;;;;;;30.56;32.56;94397.81;4912815;29;20501;-80
2021/08/07 14:13:20;;;;;;;1.42;0.70;;;;;;;30.58;32.89;94394.81;4929364;29;20024;-80
2021/08/07 14:15:46;;;;;;;0.90;0.90;;;;;;;30.19;32.01;94392.88;4942185;29;20047;-77
2021/08/07 14:18:11;;;;;;;0.68;0.68;;;;;;;29.71;32.71;94392.72;4932286;29;20039;-76
2021/08/07 14:20:37;;;;;;;0.70;0.70;;;;;;;29.56;33.43;94387.75;4949473;29;20035;-76
2021/08/07 14:23:03;;;;;;;0.70;0.70;;;;;;;30.02;33.37;94380.19;4932178;29;20440;-76
2021/08/07 14:25:28;;;;;;;1.15;0.70;;;;;;;30.24;32.82;94382.84;4930179;29;20429;-76
2021/08/07 14:27:54;;;;;;;1.10;0.55;;;;;;;30.19;33.19;94385.66;4944711;29;20028;-77
2021/08/07 14:30:20;;;;;;;0.70;0.70;;;;;;;30.11;33.24;94378.38;4946916;29;20023;-77
2021/08/07 14:32:46;;;;;;;0.93;0.90;;;;;;;30.26;33.88;94382.53;4946905;28;20119;-77
2021/08/07 14:35:11;;;;;;;1.15;0.70;;;;;;;30.43;33.41;94384.53;4949135;29;20439;-76
2021/08/07 14:37:37;;;;;;;1.67;0.60;;;;;;;30.11;33.31;94383.72;4931731;29;20043;-76
2021/08/07 14:40:03;;;;;;;0.68;0.60;;;;;;;29.73;33.21;94361.94;4948370;29;20032;-76
2021/08/07 14:42:28;;;;;;;0.65;0.60;;;;;;;30.15;32.84;94390.03;4930676;29;20039;-76
2021/08/07 14:44:54;;;;;;;0.80;0.70;;;;;;;30.28;32.84;94377.66;4944193;29;20437;-77
2021/08/07 14:47:19;;;;;;;0.90;0.90;;;;;;;30.24;32.82;94377.50;4929923;29;20039;-76
2021/08/07 14:49:47;;;;;;;0.80;0.80;;;;;;;29.56;33.20;94380.53;4932073;29;20031;-77
2021/08/07 14:52:13;;;;;;;0.80;0.80;;;;;;;29.73;33.83;94380.63;4948111;29;20477;-76
2021/08/07 14:54:38;;;;;;;0.63;0.63;;;;;;;29.89;33.21;94391.00;4932131;29;20039;-76
2021/08/07 14:57:04;;;;;;;1.08;0.60;;;;;;;30.06;34.29;94383.06;4949387;29;20039;-77
2021/08/07 14:59:29;;;;;;;2.45;0.60;;;;;;;30.20;33.15;94383.78;4923706;29;20024;-76
2021/08/07 15:01:55;;;;;;;0.70;0.70;;;;;;;30.09;32.59;94385.91;4940837;29;20073;-76
2021/08/07 15:04:20;;;;;;;1.10;0.70;;;;;;;29.79;31.95;94371.41;4948772;29;20046;-76
2021/08/07 15:06:46;;;;;;;0.90;0.55;;;;;;;29.58;31.95;94390.88;4931438;29;20489;-76
2021/08/07 15:09:11;;;;;;;0.60;0.60;;;;;;;29.75;32.72;94399.81;4931697;29;20027;-76
2021/08/07 15:11:37;;;;;;;0.80;0.70;;;;;;;29.96;33.13;94386.78;4946487;28;20055;-76
2021/08/07 15:14:03;;;;;;;1.00;0.70;;;;;;;29.97;32.77;94390.25;4915646;29;20045;-76
2021/08/07 15:16:28;;;;;;;2.15;0.60;;;;;;;29.68;33.03;94396.00;4923814;29;20035;-76
2021/08/07 15:18:54;;;;;;;3.10;0.80;;;;;;;29.76;33.29;94387.25;4932386;29;20090;-76
2021/08/07 15:21:21;;;;;;;1.80;0.70;;;;;;;29.83;34.03;94387.63;4947522;29;20027;-77
2021/08/07 15:23:46;;;;;;;0.57;0.57;;;;;;;29.67;33.99;94379.19;4915973;29;20110;-77
2021/08/07 15:26:12;;;;;;;0.65;0.65;;;;;;;29.77;33.56;94380.81;4931522;29;20038;-77
2021/08/07 15:28:37;;;;;;;0.98;0.60;;;;;;;29.81;34.09;94387.94;4915208;29;20039;-76
2021/08/07 15:31:03;;;;;;;4.32;4.03;;;;;;;29.56;33.98;94391.22;4948721;29;20038;-76
2021/08/07 15:33:28;;;;;;;9.10;8.27;;;;;;;29.62;34.12;94387.31;4931040;29;20114;-76
2021/08/07 15:35:54;;;;;;;4.85;4.40;;;;;;;29.66;33.08;94388.31;4915906;29;20405;-76
2021/08/07 15:38:20;;;;;;;5.95;2.63;;;;;;;29.57;32.89;94390.09;4915370;29;20082;-76
2021/08/07 15:40:53;;;;;;;0.95;0.95;;;;;;;29.50;33.00;94389.75;4930973;29;20106;-76
2021/08/07 15:43:18;;;;;;;1.10;0.85;;;;;;;29.46;32.89;94382.63;4948177;29;20073;-76
2021/08/07 15:45:44;;;;;;;0.82;0.50;;;;;;;29.46;33.44;94396.78;4929847;29;20408;-76
2021/08/07 15:48:09;;;;;;;1.02;0.80;;;;;;;29.37;33.70;94389.78;4913309;29;20046;-76
2021/08/07 15:50:36;;;;;;;0.50;0.50;;;;;;;29.48;33.55;94396.47;4934116;29;20539;-77
2021/08/07 15:53:05;;;;;;;2.92;0.82;;;;;;;29.31;33.62;94399.81;4946259;29;20016;-76
2021/08/07 15:55:30;;;;;;;0.60;0.60;;;;;;;29.13;33.94;94406.03;4929435;29;20098;-76
2021/08/07 15:57:56;;;;;;;1.13;0.70;;;;;;;29.16;34.23;94402.75;4930575;29;20020;-76
2021/08/07 16:00:21;;;;;;;1.25;0.70;;;;;;;29.11;33.95;94405.53;4897907;29;20094;-76
2021/08/07 16:02:48;;;;;;;0.60;0.60;;;;;;;28.71;33.58;94348.50;4912157;29;20043;-76
2021/08/07 16:05:13;;;;;;;1.20;0.70;;;;;;;28.76;33.97;94391.88;4927525;29;20097;-75
2021/08/07 16:07:39;;;;;;;2.42;0.68;;;;;;;28.84;33.91;94406.38;4943291;28;20576;-76
2021/08/07 16:10:05;;;;;;;1.30;0.80;;;;;;;28.76;34.55;94407.88;4894976;29;20036;-76
2021/08/07 16:12:30;;;;;;;1.45;0.50;;;;;;;28.69;34.94;94409.34;4911112;29;20047;-76
2021/08/07 16:14:56;;;;;;;0.70;0.70;;;;;;;28.60;34.47;94411.09;4911521;29;20027;-76
2021/08/07 16:17:21;;;;;;;0.50;0.50;;;;;;;28.64;34.83;94420.84;4928396;29;20035;-75
2021/08/07 16:19:47;;;;;;;3.20;0.70;;;;;;;28.53;35.95;94421.38;4911319;29;20478;-75
2021/08/07 16:22:12;;;;;;;1.20;0.65;;;;;;;28.16;37.04;94415.09;4911257;29;20426;-75
2021/08/07 16:24:37;;;;;;;0.90;0.80;;;;;;;28.07;36.80;94426.72;4895530;29;20031;-75
2021/08/07 16:27:03;;;;;;;1.67;0.63;;;;;;;27.96;37.53;94415.44;4911397;29;20023;-76
2021/08/07 16:29:29;;;;;;;0.68;0.55;;;;;;;27.88;38.02;94423.28;4895774;29;20038;-75
2021/08/07 16:31:54;;;;;;;3.40;0.95;;;;;;;27.72;38.24;94420.88;4911322;29;20046;-75
2021/08/07 16:34:20;;;;;;;1.80;0.70;;;;;;;27.64;38.58;94413.56;4911636;29;20028;-75
2021/08/07 16:36:46;;;;;;;2.97;1.10;;;;;;;27.46;38.41;94417.00;4927145;29;20148;-75
2021/08/07 16:39:11;;;;;;;0.80;0.68;;;;;;;27.34;38.53;94418.50;4910845;29;20482;-75